Time;durP1;ratioP1;P1;durP2;ratioP2;P2;SDS_P1;SDS_P2;PMS_P1;PMS_P2;Temp;Humidity;BMP_temperature;BMP_pressure;BME280_temperature;BME280_humidity;BME280_pressure;Samples;Min_cycle;Max_cycle;Signal;HPM_P1;HPM_P2
2022/12/29 00:00:17;;;;;;;0.00;0.00;;;;;;;7.58;100.00;98313.53;6216338;23;20000;-82
2022/12/29 00:02:43;;;;;;;0.00;0.00;;;;;;;7.70;100.00;98329.38;6215167;23;20487;-78
2022/12/29 00:05:19;;;;;;;;;;;;;;;;;;;;;
2022/12/29 00:07:47;;;;;;;0.00;0.00;;;;;;;7.47;100.00;98299.28;6215908;23;20080;-80
2022/12/29 00:10:12;;;;;;;0.00;0.00;;;;;;;7.33;100.00;98299.25;6189811;23;20095;-80
2022/12/29 00:18:39;;;;;;;;;;;;;;;;;;;;;
2022/12/29 00:35:13;;;;;;;0.10;0.10;;;;;;;7.06;100.00;98283.59;6220649;23;20473;-82
2022/12/29 00:46:20;;;;;;;0.10;0.10;;;;;;;6.84;100.00;98291.56;6214284;23;20059;-80
2022/12/29 00:51:32;;;;;;;0.10;0.10;;;;;;;6.79;100.00;98309.53;6214978;23;20344;-80
2022/12/29 00:53:57;;;;;;;0.00;0.00;;;;;;;6.84;100.00;98292.38;6214210;23;20412;-79
2022/12/29 00:56:47;;;;;;;0.10;0.10;;;;;;;6.78;100.00;98305.19;6190982;23;20069;-81
2022/12/29 00:59:29;;;;;;;0.10;0.10;;;;;;;6.69;100.00;98296.09;6201986;23;20009;-81
2022/12/29 01:01:55;;;;;;;0.10;0.10;;;;;;;6.58;100.00;98310.91;6215960;23;20003;-80
2022/12/29 01:04:22;;;;;;;0.00;0.00;;;;;;;6.59;100.00;98264.44;6214317;23;20327;-78
2022/12/29 01:06:48;;;;;;;0.00;0.00;;;;;;;6.71;100.00;98299.31;6215832;23;20009;-78
2022/12/29 01:12:00;;;;;;;0.00;0.00;;;;;;;6.60;100.00;98244.34;6217536;23;20016;-80
2022/12/29 01:14:28;;;;;;;0.10;0.10;;;;;;;6.57;100.00;98249.53;6213564;23;20000;-80
2022/12/29 01:16:57;;;;;;;0.00;0.00;;;;;;;6.65;100.00;98262.47;6216881;23;20001;-80
2022/12/29 01:19:23;;;;;;;0.00;0.00;;;;;;;6.64;100.00;98260.84;6210748;23;20514;-80
2022/12/29 01:21:51;;;;;;;0.00;0.00;;;;;;;6.72;100.00;98257.50;6188864;23;20012;-81
2022/12/29 01:24:28;;;;;;;;;;;;;;;;;;;;;
2022/12/29 01:26:54;;;;;;;0.00;0.00;;;;;;;6.80;100.00;98262.28;6214607;23;20091;-79
2022/12/29 01:29:26;;;;;;;0.00;0.00;;;;;;;6.73;100.00;98231.94;6208583;23;20027;-80
2022/12/29 01:31:51;;;;;;;0.00;0.00;;;;;;;6.76;100.00;98235.97;6188882;23;20004;-80
2022/12/29 01:34:17;;;;;;;0.00;0.00;;;;;;;6.81;100.00;98233.97;6214642;23;20530;-80
2022/12/29 01:36:45;;;;;;;0.00;0.00;;;;;;;6.76;100.00;98285.69;6211318;23;20007;-82
2022/12/29 01:39:18;;;;;;;0.10;0.10;;;;;;;6.80;100.00;98232.38;6187199;23;20008;-82
2022/12/29 01:41:53;;;;;;;0.00;0.00;;;;;;;6.75;100.00;98229.72;6209039;23;20016;-80
2022/12/29 01:44:50;;;;;;;0.08;0.08;;;;;;;6.97;100.00;98258.22;6214897;23;20305;-82
2022/12/29 01:47:53;;;;;;;;;;;;;;;;;;;;;
2022/12/29 01:50:32;;;;;;;0.10;0.10;;;;;;;7.03;100.00;98248.88;6217049;23;20028;-82
2022/12/29 01:53:01;;;;;;;0.00;0.00;;;;;;;7.15;100.00;98281.84;6213148;23;20007;-81
2022/12/29 01:55:31;;;;;;;0.10;0.10;;;;;;;7.11;100.00;98253.66;6211601;23;20032;-81
2022/12/29 01:58:03;;;;;;;0.00;0.00;;;;;;;7.12;100.00;98211.75;6215247;23;20011;-82
2022/12/29 02:00:56;;;;;;;0.00;0.00;;;;;;;7.38;100.00;98219.50;6207861;23;20010;-81
2022/12/29 02:04:23;;;;;;;0.00;0.00;;;;;;;7.49;100.00;98210.06;6214229;23;20098;-81
2022/12/29 02:07:20;;;;;;;;;;;;;;;7.80;100.00;98244.03;6214481;23;20015;-80
2022/12/29 02:14:15;;;;;;;;;;;;;;;;;;;;;
2022/12/29 02:17:15;;;;;;;;;;;;;;;;;;;;;
2022/12/29 02:20:58;;;;;;;;;;;;;;;;;;;;;
2022/12/29 02:24:23;;;;;;;;;;;;;;;;;;;;;
2022/12/29 02:30:17;;;;;;;0.00;0.00;;;;;;;7.73;100.00;98170.97;6214237;23;20011;-79
2022/12/29 02:33:13;;;;;;;0.00;0.00;;;;;;;7.82;100.00;98190.91;6209990;23;20002;-78
2022/12/29 02:35:56;;;;;;;0.00;0.00;;;;;;;7.77;100.00;98199.19;6211896;23;20015;-79
2022/12/29 02:38:37;;;;;;;0.00;0.00;;;;;;;7.80;100.00;98187.69;6208015;23;20051;-80
2022/12/29 02:41:21;;;;;;;0.00;0.00;;;;;;;7.88;100.00;98174.50;6209585;23;20008;-78
2022/12/29 02:44:00;;;;;;;0.00;0.00;;;;;;;7.77;100.00;98161.09;6226094;23;20001;-79
2022/12/29 02:46:34;;;;;;;0.00;0.00;;;;;;;7.61;100.00;98132.59;6212065;23;20682;-82
2022/12/29 02:49:32;;;;;;;0.00;0.00;;;;;;;7.71;100.00;98139.72;6215291;23;20008;-82
2022/12/29 02:52:09;;;;;;;0.00;0.00;;;;;;;7.77;100.00;98141.22;6213781;23;20004;-82
2022/12/29 02:54:50;;;;;;;0.00;0.00;;;;;;;7.79;100.00;98171.69;6212016;23;20136;-82
2022/12/29 02:57:39;;;;;;;0.00;0.00;;;;;;;7.49;100.00;98182.03;6209603;23;20008;-81
2022/12/29 03:00:22;;;;;;;0.00;0.00;;;;;;;7.62;100.00;98189.41;6214748;23;20431;-81
2022/12/29 03:03:44;;;;;;;;;;;;;;;;;;;;;
2022/12/29 03:06:41;;;;;;;0.00;0.00;;;;;;;7.17;100.00;98210.88;6213106;23;20087;-81
2022/12/29 03:09:19;;;;;;;;;;;;;;;;;;;;;
2022/12/29 03:12:10;;;;;;;0.00;0.00;;;;;;;7.11;100.00;98193.84;6218113;23;20432;-81
2022/12/29 03:18:16;;;;;;;0.00;0.00;;;;;;;7.57;100.00;98257.50;6209846;23;20850;-81
2022/12/29 03:20:54;;;;;;;0.00;0.00;;;;;;;7.68;100.00;98222.75;6213961;23;20004;-83
2022/12/29 03:23:34;;;;;;;0.00;0.00;;;;;;;7.82;100.00;98222.78;6214392;23;20000;-81
2022/12/29 03:26:09;;;;;;;0.10;0.10;;;;;;;7.92;100.00;98225.28;6209238;23;20088;-81
2022/12/29 03:29:08;;;;;;;;;;;;;;;;;;;;;
2022/12/29 03:31:37;;;;;;;0.00;0.00;;;;;;;7.90;100.00;98245.75;6215171;23;20092;-82
2022/12/29 03:34:08;;;;;;;0.00;0.00;;;;;;;8.02;100.00;98287.69;6215868;23;20000;-83
2022/12/29 03:37:05;;;;;;;0.00;0.00;;;;;;;7.99;100.00;98273.91;6214706;23;20083;-82
2022/12/29 03:39:41;;;;;;;0.00;0.00;;;;;;;8.00;100.00;98272.75;6214797;23;20312;-81
2022/12/29 03:42:22;;;;;;;;;;;;;;;;;;;;;
2022/12/29 03:44:56;;;;;;;0.10;0.10;;;;;;;8.00;100.00;98267.31;6214744;23;20398;-81
2022/12/29 03:47:39;;;;;;;;;;;;;;;;;;;;;
2022/12/29 03:50:13;;;;;;;0.10;0.10;;;;;;;7.88;100.00;98269.75;6211607;23;20056;-81
2022/12/29 03:52:54;;;;;;;0.00;0.00;;;;;;;7.79;100.00;98264.19;6213707;23;20020;-81
2022/12/29 03:55:19;;;;;;;0.00;0.00;;;;;;;7.80;100.00;98301.97;6214393;23;20008;-82
2022/12/29 03:57:52;;;;;;;0.00;0.00;;;;;;;7.56;100.00;98285.00;6214296;23;20001;-81
2022/12/29 04:00:28;;;;;;;0.00;0.00;;;;;;;7.43;100.00;98292.00;6210644;23;20103;-82
2022/12/29 04:03:12;;;;;;;0.00;0.00;;;;;;;7.46;100.00;98307.72;6213278;23;20001;-82
2022/12/29 04:05:37;;;;;;;0.00;0.00;;;;;;;7.29;100.00;98275.66;6166868;23;20011;-82
2022/12/29 04:08:20;;;;;;;;;;;;;;;;;;;;;
2022/12/29 04:11:06;;;;;;;0.10;0.10;;;;;;;7.35;100.00;98334.28;6214958;23;20784;-81
2022/12/29 04:13:40;;;;;;;0.00;0.00;;;;;;;7.20;100.00;98315.47;6184519;23;20054;-81
2022/12/29 04:16:18;;;;;;;0.00;0.00;;;;;;;7.29;100.00;98358.03;6212327;23;20009;-81
2022/12/29 04:19:00;;;;;;;0.10;0.10;;;;;;;7.25;100.00;98361.63;6208959;23;20111;-81
2022/12/29 04:21:44;;;;;;;;;;;;;;;;;;;;;
2022/12/29 04:24:09;;;;;;;0.00;0.00;;;;;;;6.93;100.00;98344.94;6209989;23;20083;-80
2022/12/29 04:26:37;;;;;;;0.00;0.00;;;;;;;6.91;100.00;98365.38;6213440;23;20111;-80
2022/12/29 04:32:33;;;;;;;0.00;0.00;;;;;;;7.09;100.00;98390.94;6209106;23;20019;-80
2022/12/29 04:34:58;;;;;;;0.00;0.00;;;;;;;7.11;100.00;98394.97;6213234;23;20419;-79
2022/12/29 04:37:24;;;;;;;0.00;0.00;;;;;;;6.99;100.00;98391.88;6206103;23;20008;-79
2022/12/29 04:39:52;;;;;;;0.00;0.00;;;;;;;6.79;100.00;98393.75;6212456;23;20182;-79
2022/12/29 04:42:30;;;;;;;;;;;;;;;;;;;;;
2022/12/29 04:44:55;;;;;;;0.00;0.00;;;;;;;6.80;100.00;98432.59;6210962;23;20103;-78
2022/12/29 04:47:31;;;;;;;;;;;;;;;;;;;;;
2022/12/29 04:49:57;;;;;;;0.10;0.10;;;;;;;6.88;100.00;98437.41;6213723;23;20056;-81
2022/12/29 04:52:30;;;;;;;0.00;0.00;;;;;;;6.91;100.00;98438.72;6213387;23;20435;-82
2022/12/29 04:55:03;;;;;;;0.00;0.00;;;;;;;6.94;100.00;98449.81;6210682;23;20009;-82
2022/12/29 04:57:33;;;;;;;0.05;0.05;;;;;;;7.11;100.00;98492.00;6214777;23;20083;-83
2022/12/29 05:00:18;;;;;;;;;;;;;;;;;;;;;
2022/12/29 05:02:47;;;;;;;0.00;0.00;;;;;;;6.93;100.00;98480.78;6214973;23;20091;-82
2022/12/29 05:05:13;;;;;;;0.00;0.00;;;;;;;6.71;100.00;98473.16;6211614;23;20036;-80
2022/12/29 05:07:39;;;;;;;0.10;0.10;;;;;;;6.66;100.00;98486.81;6198031;23;20449;-81
2022/12/29 05:10:22;;;;;;;0.00;0.00;;;;;;;6.64;100.00;98521.59;6209846;23;20012;-82
2022/12/29 05:12:47;;;;;;;0.00;0.00;;;;;;;6.56;100.00;98514.09;6188475;23;20008;-80
2022/12/29 05:15:15;;;;;;;0.10;0.10;;;;;;;6.64;100.00;98527.03;6208822;23;20019;-79
2022/12/29 05:17:43;;;;;;;0.00;0.00;;;;;;;6.54;100.00;98529.84;6210567;23;20420;-80
2022/12/29 05:20:09;;;;;;;0.00;0.00;;;;;;;6.59;100.00;98546.09;6207456;23;20983;-79
2022/12/29 05:22:35;;;;;;;0.00;0.00;;;;;;;6.51;100.00;98543.97;6210890;23;20008;-80
2022/12/29 05:31:56;;;;;;;0.10;0.10;;;;;;;6.36;100.00;98570.16;6149300;23;20024;-81
2022/12/29 05:34:21;;;;;;;0.00;0.00;;;;;;;6.23;100.00;98570.81;6130404;23;20013;-81
2022/12/29 05:36:47;;;;;;;0.00;0.00;;;;;;;6.18;100.00;98579.81;6153601;23;20016;-80
2022/12/29 05:39:22;;;;;;;0.00;0.00;;;;;;;6.06;100.00;98582.03;6129230;23;20051;-82
2022/12/29 05:41:58;;;;;;;;;;;;;;;;;;;;;
2022/12/29 05:44:32;;;;;;;0.00;0.00;;;;;;;5.97;100.00;98600.00;6178099;23;20084;-81
2022/12/29 05:47:11;;;;;;;0.10;0.10;;;;;;;5.93;100.00;98610.59;6158469;23;20016;-81
2022/12/29 05:49:36;;;;;;;0.10;0.10;;;;;;;6.05;100.00;98619.22;6153175;23;20016;-80
2022/12/29 05:52:02;;;;;;;0.00;0.00;;;;;;;6.18;100.00;98622.44;6120900;23;20343;-80
2022/12/29 05:54:27;;;;;;;0.00;0.00;;;;;;;6.21;100.00;98630.00;6184623;23;20322;-81
2022/12/29 05:56:52;;;;;;;0.00;0.00;;;;;;;6.32;100.00;98650.53;6162754;23;20572;-80
2022/12/29 05:59:18;;;;;;;0.00;0.00;;;;;;;6.38;100.00;98654.88;6215140;23;20008;-82
2022/12/29 06:01:46;;;;;;;0.10;0.10;;;;;;;6.29;100.00;98661.97;6185366;23;20485;-81
2022/12/29 06:04:11;;;;;;;0.00;0.00;;;;;;;6.13;100.00;98668.59;6163102;23;20017;-82
2022/12/29 06:06:37;;;;;;;0.00;0.00;;;;;;;6.10;100.00;98676.22;6186321;23;20070;-82
2022/12/29 06:09:02;;;;;;;0.00;0.00;;;;;;;5.98;100.00;98675.72;6188180;23;20000;-84
2022/12/29 06:11:30;;;;;;;0.00;0.00;;;;;;;5.81;100.00;98661.66;6161445;23;20015;-82
2022/12/29 06:13:58;;;;;;;0.00;0.00;;;;;;;5.83;100.00;98673.06;6186793;23;20004;-82
2022/12/29 06:16:23;;;;;;;0.00;0.00;;;;;;;5.85;100.00;98684.41;6160692;23;20432;-83
2022/12/29 06:18:49;;;;;;;0.10;0.10;;;;;;;5.83;100.00;98686.63;6138362;23;20008;-82
2022/12/29 06:21:17;;;;;;;0.00;0.00;;;;;;;5.87;100.00;98703.94;6161979;23;20039;-81
2022/12/29 06:23:58;;;;;;;;;;;;;;;;;;;;;
2022/12/29 06:26:26;;;;;;;0.10;0.10;;;;;;;5.85;100.00;98703.41;6188520;23;20503;-81
2022/12/29 06:28:52;;;;;;;0.00;0.00;;;;;;;5.85;100.00;98689.84;6184129;23;20012;-80
2022/12/29 06:31:17;;;;;;;0.00;0.00;;;;;;;6.14;100.00;98702.78;6201101;23;20474;-81
2022/12/29 06:33:47;;;;;;;0.10;0.10;;;;;;;6.33;100.00;98716.53;6209729;23;20080;-82
2022/12/29 06:36:15;;;;;;;0.00;0.00;;;;;;;6.53;100.00;98731.91;6210109;23;20047;-82
2022/12/29 06:38:53;;;;;;;0.03;0.03;;;;;;;6.49;100.00;98715.34;6184197;23;20009;-81
2022/12/29 06:41:36;;;;;;;;;;;;;;;;;;;;;
2022/12/29 06:44:02;;;;;;;0.10;0.10;;;;;;;6.58;100.00;98729.16;6209533;23;20386;-81
2022/12/29 06:46:37;;;;;;;;;;;;;;;;;;;;;
2022/12/29 06:49:20;;;;;;;0.00;0.00;;;;;;;6.40;100.00;98727.91;6211934;23;20115;-83
2022/12/29 06:52:05;;;;;;;;;;;;;;;;;;;;;
2022/12/29 06:54:44;;;;;;;;;;;;;;;;;;;;;
2022/12/29 06:57:12;;;;;;;0.00;0.00;;;;;;;6.31;100.00;98749.41;6212401;23;19983;-83
2022/12/29 06:59:48;;;;;;;0.00;0.00;;;;;;;6.49;100.00;98753.38;6207927;23;20008;-84
2022/12/29 07:02:31;;;;;;;0.10;0.10;;;;;;;6.26;100.00;98744.81;6187908;23;20443;-81
2022/12/29 07:05:13;;;;;;;;;;;;;;;;;;;;;
2022/12/29 07:08:01;;;;;;;0.00;0.00;;;;;;;6.05;100.00;98733.22;6211846;23;20060;-78
2022/12/29 07:10:27;;;;;;;0.10;0.10;;;;;;;6.21;100.00;98747.53;6208447;23;20001;-80
2022/12/29 07:13:02;;;;;;;0.00;0.00;;;;;;;6.18;100.00;98758.94;6183242;23;20015;-79
2022/12/29 07:15:48;;;;;;;0.00;0.00;;;;;;;6.36;100.00;98771.06;6185469;23;20443;-80
2022/12/29 07:18:15;;;;;;;0.00;0.00;;;;;;;6.38;100.00;98763.47;6205455;23;20005;-82
2022/12/29 07:20:41;;;;;;;0.00;0.00;;;;;;;6.43;100.00;98770.78;6209371;23;20001;-81
2022/12/29 07:23:09;;;;;;;0.00;0.00;;;;;;;6.24;100.00;98762.47;6210584;23;20001;-79
2022/12/29 07:25:35;;;;;;;0.00;0.00;;;;;;;6.26;100.00;98766.53;6158134;23;20035;-80
2022/12/29 07:28:01;;;;;;;0.10;0.10;;;;;;;6.25;100.00;98764.06;6209358;23;20011;-81
2022/12/29 07:30:29;;;;;;;0.03;0.03;;;;;;;6.19;100.00;98757.88;6206604;23;20024;-80
2022/12/29 07:33:45;;;;;;;;;;;;;;;;;;;;;
2022/12/29 07:36:17;;;;;;;0.00;0.00;;;;;;;6.39;100.00;98781.38;6212714;23;20083;-81
2022/12/29 07:38:43;;;;;;;0.00;0.00;;;;;;;6.27;100.00;98772.75;6207315;23;20004;-81
2022/12/29 07:41:11;;;;;;;0.00;0.00;;;;;;;6.40;100.00;98793.88;6208716;23;19989;-82
2022/12/29 07:43:54;;;;;;;0.00;0.00;;;;;;;6.40;100.00;98777.56;6187579;23;20028;-84
2022/12/29 07:46:22;;;;;;;0.00;0.00;;;;;;;6.37;100.00;98796.34;6208106;23;20711;-82
2022/12/29 07:48:47;;;;;;;0.10;0.10;;;;;;;6.25;100.00;98802.06;6212115;23;20008;-81
2022/12/29 07:51:13;;;;;;;0.00;0.00;;;;;;;6.04;100.00;98812.97;6182083;23;21033;-81
2022/12/29 07:53:41;;;;;;;0.00;0.00;;;;;;;6.04;100.00;98818.41;6213193;23;20340;-82
2022/12/29 07:56:11;;;;;;;0.00;0.00;;;;;;;6.01;100.00;98840.69;6158717;23;20074;-81
2022/12/29 07:58:46;;;;;;;;;;;;;;;;;;;;;
2022/12/29 08:01:17;;;;;;;0.00;0.00;;;;;;;5.75;100.00;98808.16;6211823;23;20084;-83
2022/12/29 08:03:45;;;;;;;0.00;0.00;;;;;;;5.86;100.00;98844.19;6190062;23;20012;-80
2022/12/29 08:06:21;;;;;;;;;;;;;;;;;;;;;
2022/12/29 08:08:47;;;;;;;0.00;0.00;;;;;;;5.89;100.00;98861.84;6213375;23;20079;-79
2022/12/29 08:11:18;;;;;;;0.10;0.10;;;;;;;5.92;100.00;98861.28;6208902;23;20028;-77
2022/12/29 08:13:45;;;;;;;0.00;0.00;;;;;;;5.94;100.00;98857.22;6187365;23;20004;-83
2022/12/29 08:20:58;;;;;;;;;;;;;;;;;;;;;
2022/12/29 08:24:05;;;;;;;;;;;;;;;;;;;;;
2022/12/29 08:26:38;;;;;;;0.00;0.00;;;;;;;5.89;100.00;98880.84;6154585;23;20040;-81
2022/12/29 08:47:27;;;;;;;;;;;;;;;;;;;;;
2022/12/29 09:14:34;;;;;;;0.10;0.10;;;;;;;6.39;100.00;98952.44;6186869;22;20032;-82
2022/12/29 09:19:58;;;;;;;;;;;;;;;;;;;;;
2022/12/29 09:22:26;;;;;;;0.00;0.00;;;;;;;6.87;100.00;98976.50;6213175;23;20101;-83
2022/12/29 09:25:02;;;;;;;0.00;0.00;;;;;;;6.84;100.00;98976.25;6209365;23;20001;-81
2022/12/29 09:27:44;;;;;;;0.00;0.00;;;;;;;6.85;100.00;98977.84;6214886;23;20000;-81
2022/12/29 09:30:14;;;;;;;0.08;0.08;;;;;;;7.02;100.00;98983.78;6210470;23;20079;-82
2022/12/29 09:32:40;;;;;;;0.00;0.00;;;;;;;7.11;100.00;99003.88;6191464;23;20004;-83
2022/12/29 09:35:25;;;;;;;;;;;;;;;;;;;;;
2022/12/29 09:37:51;;;;;;;0.00;0.00;;;;;;;7.50;100.00;99011.31;6213634;23;20052;-83
2022/12/29 09:40:32;;;;;;;0.00;0.00;;;;;;;7.46;100.00;99021.13;6186172;23;20387;-83
2022/12/29 09:43:44;;;;;;;0.00;0.00;;;;;;;7.45;100.00;99019.50;6211981;23;20036;-82
2022/12/29 09:46:09;;;;;;;0.00;0.00;;;;;;;7.30;100.00;99033.16;6209514;23;20024;-83
2022/12/29 09:48:40;;;;;;;0.00;0.00;;;;;;;7.23;100.00;99016.31;6215331;23;20008;-82
2022/12/29 09:51:13;;;;;;;0.00;0.00;;;;;;;7.30;100.00;99012.22;6207566;23;20015;-82
2022/12/29 09:53:58;;;;;;;0.10;0.10;;;;;;;7.36;100.00;99007.56;6212874;23;20036;-82
2022/12/29 09:57:04;;;;;;;0.00;0.00;;;;;;;7.75;100.00;99012.25;6210336;23;20349;-82
2022/12/29 09:59:55;;;;;;;0.00;0.00;;;;;;;8.11;100.00;99028.34;6209744;23;20001;-82
2022/12/29 10:02:50;;;;;;;0.00;0.00;;;;;;;8.26;100.00;99026.59;6212897;23;20015;-82
2022/12/29 10:06:11;;;;;;;0.08;0.08;;;;;;;8.54;100.00;99025.84;6211279;23;20012;-82
2022/12/29 10:08:42;;;;;;;0.00;0.00;;;;;;;8.64;100.00;99041.25;6213320;23;20000;-82
2022/12/29 10:11:31;;;;;;;0.00;0.00;;;;;;;8.70;100.00;99047.47;6213567;23;20083;-82
2022/12/29 10:17:48;;;;;;;;;;;;;;;;;;;;;
2022/12/29 10:20:51;;;;;;;0.00;0.00;;;;;;;11.06;100.00;99080.84;6214388;23;20028;-80
2022/12/29 10:23:42;;;;;;;0.00;0.00;;;;;;;10.34;100.00;99090.22;6207353;23;20008;-78
2022/12/29 10:26:27;;;;;;;;;;;;;;;;;;;;;
2022/12/29 10:29:33;;;;;;;;;;;;;;;;;;;;;
2022/12/29 10:32:19;;;;;;;;;;;;;;;;;;;;;
2022/12/29 10:35:04;;;;;;;0.00;0.00;;;;;;;7.57;100.00;99053.72;6212805;23;20075;-79
2022/12/29 10:37:40;;;;;;;0.10;0.10;;;;;;;7.60;100.00;99064.84;6207986;23;20031;-78
2022/12/29 10:40:50;;;;;;;0.00;0.00;;;;;;;7.70;100.00;99085.75;6214771;23;20026;-80
2022/12/29 10:43:21;;;;;;;0.00;0.00;;;;;;;8.13;100.00;99096.94;6200158;23;20331;-80
2022/12/29 10:45:47;;;;;;;0.00;0.00;;;;;;;8.69;100.00;99089.47;6204729;23;20000;-80
2022/12/29 10:48:21;;;;;;;0.00;0.00;;;;;;;8.80;100.00;99084.75;6208077;23;20013;-78
2022/12/29 10:50:49;;;;;;;0.00;0.00;;;;;;;8.76;100.00;99076.34;6210951;23;20012;-79
2022/12/29 10:53:41;;;;;;;0.00;0.00;;;;;;;9.48;98.14;99081.00;6207859;23;20012;-82
2022/12/29 10:56:49;;;;;;;0.00;0.00;;;;;;;9.39;98.50;99088.22;6205318;23;20011;-81
2022/12/29 10:59:28;;;;;;;0.00;0.00;;;;;;;8.78;99.34;99093.19;6209105;23;20000;-79
2022/12/29 11:02:11;;;;;;;0.10;0.10;;;;;;;7.96;100.00;99085.63;6209563;23;20036;-79
2022/12/29 11:05:04;;;;;;;0.00;0.00;;;;;;;7.79;100.00;99096.88;6205829;23;20332;-78
2022/12/29 11:07:55;;;;;;;0.00;0.00;;;;;;;8.77;100.00;99091.56;6211355;23;20435;-80
2022/12/29 11:10:40;;;;;;;0.05;0.05;;;;;;;11.50;100.00;99095.84;6189321;23;20004;-81
2022/12/29 11:13:35;;;;;;;;;;;;;;;14.49;100.00;99095.25;6212256;23;20031;-78
2022/12/29 11:16:03;;;;;;;0.00;0.00;;;;;;;15.81;83.39;99081.94;6205445;23;20401;-78
2022/12/29 11:18:46;;;;;;;0.00;0.00;;;;;;;15.42;81.22;99089.41;6178971;23;20020;-79
2022/12/29 11:21:33;;;;;;;0.00;0.00;;;;;;;16.33;85.20;99107.53;6207104;23;20009;-78
2022/12/29 11:24:20;;;;;;;0.10;0.10;;;;;;;17.31;77.46;99100.75;6208215;23;20008;-78
2022/12/29 11:26:45;;;;;;;0.00;0.00;;;;;;;17.16;79.40;99097.50;6205758;23;20047;-79
2022/12/29 11:29:20;;;;;;;0.00;0.00;;;;;;;17.30;73.31;99099.91;6207455;23;20004;-79
2022/12/29 11:31:52;;;;;;;0.00;0.00;;;;;;;17.50;76.48;99120.31;6207257;23;20083;-77
2022/12/29 11:34:24;;;;;;;0.00;0.00;;;;;;;15.02;76.35;99092.44;6208259;23;20026;-81
2022/12/29 11:37:01;;;;;;;0.00;0.00;;;;;;;14.86;81.31;99102.38;6206577;23;20517;-80
2022/12/29 11:39:56;;;;;;;0.00;0.00;;;;;;;15.88;79.40;99098.72;6207706;23;20012;-79
2022/12/29 11:42:30;;;;;;;0.00;0.00;;;;;;;16.48;77.44;99109.66;6203570;23;20015;-77
2022/12/29 11:45:03;;;;;;;0.00;0.00;;;;;;;17.74;79.83;99107.66;6211555;23;20005;-79
2022/12/29 11:47:36;;;;;;;0.00;0.00;;;;;;;19.08;68.06;99109.63;6210020;23;20423;-79
2022/12/29 11:50:06;;;;;;;0.00;0.00;;;;;;;20.21;75.50;99117.53;6208781;23;20147;-78
2022/12/29 11:52:39;;;;;;;0.00;0.00;;;;;;;19.27;65.42;99125.53;6207630;23;20004;-77
2022/12/29 11:55:09;;;;;;;0.00;0.00;;;;;;;17.82;68.90;99206.28;6212090;23;20008;-79
2022/12/29 11:57:38;;;;;;;0.00;0.00;;;;;;;18.58;69.58;99129.19;6179523;23;20016;-78
2022/12/29 12:00:50;;;;;;;0.00;0.00;;;;;;;18.73;73.63;99121.31;6214889;23;20092;-80
2022/12/29 12:03:39;;;;;;;0.00;0.00;;;;;;;16.48;71.95;99128.16;6213801;23;20009;-80
2022/12/29 12:09:59;;;;;;;0.10;0.10;;;;;;;15.90;76.42;99128.72;6095149;23;20010;-81
2022/12/29 12:30:40;;;;;;;0.00;0.00;;;;;;;18.21;79.96;99153.38;6143703;23;20049;-77
2022/12/29 12:33:22;;;;;;;0.00;0.00;;;;;;;18.63;70.98;99153.88;6146892;23;20087;-77
2022/12/29 12:36:24;;;;;;;0.00;0.00;;;;;;;19.76;71.59;99175.09;6207195;23;20027;-78
2022/12/29 12:42:42;;;;;;;0.00;0.00;;;;;;;14.22;83.25;99145.06;6212048;23;20484;-78
2022/12/29 12:45:56;;;;;;;;;;;;;;;;;;;;;
2022/12/29 12:49:05;;;;;;;;;;;;;;;;;;;;;
2022/12/29 12:51:57;;;;;;;0.00;0.00;;;;;;;14.11;85.34;99145.38;6207448;23;20095;-76
2022/12/29 12:54:53;;;;;;;0.00;0.00;;;;;;;12.90;84.61;99151.97;6208000;23;20018;-76
2022/12/29 12:57:55;;;;;;;0.00;0.00;;;;;;;11.91;86.84;99116.91;6207433;23;20150;-78
2022/12/29 13:00:42;;;;;;;0.00;0.00;;;;;;;12.82;97.69;99123.34;6207122;23;20559;-77
2022/12/29 13:03:21;;;;;;;0.00;0.00;;;;;;;16.78;83.81;99126.13;6183847;23;20028;-77
2022/12/29 13:17:28;;;;;;;0.00;0.00;;;;;;;13.28;83.14;99157.03;6082801;23;20125;-77
2022/12/29 13:20:43;;;;;;;0.00;0.00;;;;;;;12.27;82.94;99149.03;6150578;23;20471;-78
2022/12/29 13:23:32;;;;;;;;;;;;;;;;;;;;;
2022/12/29 13:26:14;;;;;;;0.00;0.00;;;;;;;14.00;88.01;99144.06;6148980;23;20092;-77
2022/12/29 13:29:12;;;;;;;0.00;0.00;;;;;;;13.49;84.54;99157.34;6125085;23;20403;-76
2022/12/29 13:32:03;;;;;;;;;;;;;;;;;;;;;
2022/12/29 13:35:29;;;;;;;0.00;0.00;;;;;;;14.47;84.09;99130.53;6206508;23;20076;-78
2022/12/29 13:45:31;;;;;;;;;;;;;;;;;;;;;
2022/12/29 13:52:40;;;;;;;0.00;0.00;;;;;;;10.14;92.87;99146.78;5975486;23;20008;-75
2022/12/29 13:55:44;;;;;;;;;;;;;;;;;;;;;
2022/12/29 13:58:52;;;;;;;0.00;0.00;;;;;;;10.42;91.69;99141.50;5890724;24;20104;-77
2022/12/29 14:01:52;;;;;;;0.00;0.00;;;;;;;10.27;93.40;99147.97;6031457;23;20085;-77
2022/12/29 14:04:52;;;;;;;;;;;;;;;;;;;;;
2022/12/29 14:07:21;;;;;;;0.00;0.00;;;;;;;9.99;91.05;99152.44;6088767;23;20093;-76
2022/12/29 14:10:56;;;;;;;;;;;;;;;;;;;;;
2022/12/29 14:13:28;;;;;;;;;;;;;;;;;;;;;
2022/12/29 14:16:26;;;;;;;0.00;0.00;;;;;;;9.22;93.34;99141.31;6170072;22;20099;-79
2022/12/29 14:19:07;;;;;;;;;;;;;;;;;;;;;
2022/12/29 14:21:33;;;;;;;0.00;0.00;;;;;;;9.02;94.32;99161.44;6209243;23;20079;-79
2022/12/29 14:24:27;;;;;;;0.00;0.00;;;;;;;9.41;95.82;99178.78;6209236;23;20087;-77
2022/12/29 14:26:52;;;;;;;0.00;0.00;;;;;;;9.65;95.51;99167.06;6208798;23;20005;-77
2022/12/29 14:29:23;;;;;;;0.00;0.00;;;;;;;9.89;93.79;99178.78;6207641;23;20473;-79
2022/12/29 14:31:50;;;;;;;0.00;0.00;;;;;;;10.26;95.47;99163.53;6207448;23;20000;-78
2022/12/29 14:34:29;;;;;;;0.00;0.00;;;;;;;10.52;89.94;99171.41;6209629;23;20028;-78
2022/12/29 14:37:21;;;;;;;0.00;0.00;;;;;;;10.48;89.84;99176.66;6208749;23;20003;-79
2022/12/29 14:39:49;;;;;;;0.00;0.00;;;;;;;10.54;93.62;99173.84;6209356;23;20032;-79
2022/12/29 14:42:23;;;;;;;0.00;0.00;;;;;;;10.10;92.21;99170.31;6207633;23;20001;-78
2022/12/29 14:45:12;;;;;;;0.00;0.00;;;;;;;9.54;90.25;99180.81;6212077;23;20013;-78
2022/12/29 14:47:48;;;;;;;0.00;0.00;;;;;;;9.04;94.06;99182.94;6206099;23;20012;-78
2022/12/29 14:50:17;;;;;;;0.00;0.00;;;;;;;8.99;93.88;99202.88;6212940;23;20004;-79
2022/12/29 14:53:01;;;;;;;0.00;0.00;;;;;;;9.05;94.40;99200.91;6207156;23;20299;-78
2022/12/29 14:55:41;;;;;;;0.00;0.00;;;;;;;8.91;94.69;99217.13;6209497;23;20000;-77
2022/12/29 14:58:16;;;;;;;0.05;0.05;;;;;;;8.51;98.22;99189.88;6206361;23;20006;-78
2022/12/29 15:00:42;;;;;;;0.00;0.00;;;;;;;8.23;97.61;99187.84;6210045;23;20011;-78
2022/12/29 15:03:17;;;;;;;0.00;0.00;;;;;;;8.02;95.86;99190.66;6181596;23;20015;-78
2022/12/29 15:05:46;;;;;;;0.00;0.00;;;;;;;7.92;97.05;99196.16;6209483;23;20007;-78
2022/12/29 15:08:29;;;;;;;0.00;0.00;;;;;;;7.68;99.81;99203.03;6207711;23;20005;-77
2022/12/29 15:11:23;;;;;;;0.10;0.10;;;;;;;7.55;100.00;99235.44;6210600;23;20149;-76
2022/12/29 15:13:49;;;;;;;0.00;0.00;;;;;;;7.32;100.00;99215.91;6188620;23;20009;-78
2022/12/29 15:16:29;;;;;;;0.00;0.00;;;;;;;7.35;100.00;99239.81;6213681;23;20454;-79
2022/12/29 15:18:55;;;;;;;0.00;0.00;;;;;;;7.11;100.00;99215.09;6217865;23;20355;-79
2022/12/29 15:21:27;;;;;;;0.00;0.00;;;;;;;7.30;100.00;99245.25;6216673;23;20005;-78
2022/12/29 15:24:10;;;;;;;;;;;;;;;;;;;;;
2022/12/29 15:26:46;;;;;;;0.10;0.10;;;;;;;7.46;98.53;99244.16;6212182;23;20551;-78
2022/12/29 15:29:40;;;;;;;0.10;0.10;;;;;;;7.19;100.00;99252.63;6212708;23;20007;-78
2022/12/29 15:32:17;;;;;;;0.00;0.00;;;;;;;6.95;100.00;99246.88;6209897;23;20028;-79
2022/12/29 15:34:48;;;;;;;0.00;0.00;;;;;;;6.64;100.00;99241.41;6211077;23;20431;-77
2022/12/29 15:37:22;;;;;;;0.00;0.00;;;;;;;6.52;100.00;99281.59;6210737;23;20070;-78
2022/12/29 15:39:51;;;;;;;0.00;0.00;;;;;;;6.35;100.00;99269.06;6213901;23;20005;-79
2022/12/29 15:43:01;;;;;;;0.00;0.00;;;;;;;6.23;100.00;99273.88;6209501;23;20004;-78
2022/12/29 15:45:33;;;;;;;0.00;0.00;;;;;;;6.10;100.00;99286.88;6125529;23;20052;-79
2022/12/29 15:47:59;;;;;;;0.00;0.00;;;;;;;6.06;100.00;99283.06;6159157;23;20009;-80
2022/12/29 15:50:46;;;;;;;0.00;0.00;;;;;;;6.12;100.00;99297.47;6212520;23;20001;-76
2022/12/29 15:53:19;;;;;;;0.00;0.00;;;;;;;6.26;100.00;99298.63;6210902;23;20078;-77
2022/12/29 15:55:47;;;;;;;0.00;0.00;;;;;;;6.21;100.00;99273.34;6213651;23;20020;-79
2022/12/29 15:58:47;;;;;;;0.00;0.00;;;;;;;6.26;100.00;99286.94;6184971;23;20067;-79
2022/12/29 16:01:23;;;;;;;0.00;0.00;;;;;;;6.05;100.00;99270.56;6211615;23;20005;-78
2022/12/29 16:03:59;;;;;;;0.10;0.10;;;;;;;5.95;100.00;99282.13;6214657;23;20515;-78
2022/12/29 16:07:14;;;;;;;0.00;0.00;;;;;;;5.84;100.00;99285.06;6211464;23;20001;-79
2022/12/29 16:09:54;;;;;;;;;;;;;;;;;;;;;
2022/12/29 16:12:32;;;;;;;0.00;0.00;;;;;;;5.60;100.00;99297.13;6212934;23;20109;-79